Weather History for Cody, WY

Change the Weather History Date:

Wednesday, November 21, 2012

  Actual Average Record
Temperature  
Mean Temperature 44 °F -  
Max Temperature 55 °F 41 °F 64 °F (1928)
Min Temperature 32 °F 19 °F -13 °F (1929)
Degree Days  
Heating Degree Days 22    
Moisture  
Dew Point 29 °F    
Average Humidity 59    
Maximum Humidity 93    
Minimum Humidity 36    
Precipitation  
Precipitation 0.00 in - - ()
Sea Level Pressure  
Sea Level Pressure 29.82 in    
Wind  
Wind Speed 8 mph (SW)    
Max Wind Speed 23 mph    
Max Gust Speed 33 mph    
Visibility 10 miles    
Events      
Averages and records for this station are not official NWS values.
T = Trace of Precipitation, MM = Missing Value Source: NWS Daily Summary

Daily Weather History Graph

Daily Weather History Graph

Search for Another Location

Airport:

Trip Planner

Search our weather history database for the weather conditions in past years. The results will help you decide how hot, cold, wet, or windy it might be!

Date:

Astronomy

Nov. 21, 2012 Rise Set
Actual Time 7:21 AM MST 4:42 PM MST
Civil Twilight 6:49 AM MST 5:14 PM MST
Nautical Twilight 6:13 AM MST 5:50 PM MST
Astronomical Twilight 5:38 AM MST 6:25 PM MST
Moon 1:14 PM MST (11/21) 12:28 AM MST (11/21)
Length of Visible Light 10h 25m
Length of Day
9h 21m
Waxing Gibbous, 62% of the Moon is Illuminated
Nov 21
Waxing Gibbous
Nov 28
Full
Dec 6
Last Quarter
Dec 13
New
Dec 19
First Quarter

Hourly Weather History & Observations

Time (MST) Temp. Windchill Dew Point Humidity Pressure Visibility Wind Dir Wind Speed Gust Speed Precip Events Conditions
12:15 AM 39.2 °F 33.6 °F 26.6 °F 61% 29.93 in 10.0 mi SSE 8.1 mph - N/A   Clear
12:35 AM 41.0 °F 37.1 °F 28.4 °F 61% 29.92 in 10.0 mi SSE 5.8 mph - N/A   Clear
12:55 AM 39.2 °F 33.6 °F 26.6 °F 61% 29.92 in 10.0 mi South 8.1 mph - N/A   Clear
1:15 AM 39.2 °F 35.0 °F 26.6 °F 61% 29.90 in 10.0 mi South 5.8 mph - N/A   Clear
1:35 AM 37.4 °F 30.8 °F 26.6 °F 65% 29.90 in 10.0 mi South 9.2 mph - N/A   Clear
1:55 AM 39.2 °F 34.2 °F 26.6 °F 61% 29.90 in 10.0 mi South 6.9 mph - N/A   Clear
2:15 AM 39.2 °F 34.2 °F 26.6 °F 61% 29.90 in 10.0 mi South 6.9 mph - N/A   Clear
2:35 AM 39.2 °F 33.0 °F 26.6 °F 61% 29.89 in 10.0 mi SSE 9.2 mph - N/A   Clear
2:55 AM 42.8 °F 38.6 °F 26.6 °F 53% 29.88 in 10.0 mi SE 6.9 mph - N/A   Clear
3:15 AM 41.0 °F 38.0 °F 26.6 °F 57% 29.88 in 10.0 mi South 4.6 mph - N/A   Clear
3:35 AM 39.2 °F 35.9 °F 26.6 °F 61% 29.87 in 10.0 mi SE 4.6 mph - N/A   Clear
3:55 AM 39.2 °F 35.0 °F 26.6 °F 61% 29.86 in 10.0 mi South 5.8 mph - N/A   Clear
4:15 AM 39.2 °F 35.0 °F 26.6 °F 61% 29.86 in 10.0 mi South 5.8 mph - N/A   Clear
4:35 AM 39.2 °F 37.0 °F 28.4 °F 65% 29.86 in 10.0 mi West 3.5 mph - N/A   Clear
5:15 AM 35.6 °F 30.7 °F 24.8 °F 65% 29.83 in 10.0 mi South 5.8 mph - N/A   Clear
5:35 AM 33.8 °F 30.8 °F 26.6 °F 75% 29.83 in 10.0 mi NNW 3.5 mph - N/A   Clear
5:55 AM 35.6 °F 30.7 °F 28.4 °F 75% 29.82 in 10.0 mi ESE 5.8 mph - N/A   Clear
6:15 AM 37.4 °F 32.8 °F 26.6 °F 65% 29.81 in 10.0 mi SSE 5.8 mph - N/A   Clear
6:35 AM 32.0 °F 24.8 °F 23.0 °F 69% 29.80 in 10.0 mi SSE 8.1 mph - N/A   Clear
6:55 AM 35.6 °F 29.2 °F 26.6 °F 70% 29.79 in 10.0 mi SSE 8.1 mph - N/A   Clear
7:15 AM 33.8 °F - 26.6 °F 75% 29.80 in 10.0 mi Calm Calm - N/A   Clear
7:35 AM 35.6 °F - 26.6 °F 70% 29.81 in 10.0 mi Calm Calm - N/A   Clear
8:35 AM 35.6 °F 32.8 °F 26.6 °F 70% 29.80 in 10.0 mi WSW 3.5 mph - N/A   Unknown
8:55 AM 39.2 °F 37.0 °F 28.4 °F 65% 29.79 in 10.0 mi SSW 3.5 mph - N/A   Clear
9:15 AM 39.2 °F 37.0 °F 28.4 °F 65% 29.78 in 10.0 mi SSW 3.5 mph - N/A   Clear
9:35 AM 42.8 °F 41.1 °F 28.4 °F 57% 29.78 in 10.0 mi SSW 3.5 mph - N/A   Clear
9:55 AM 44.6 °F - 30.2 °F 57% 29.78 in 10.0 mi Calm Calm - N/A   Clear
10:15 AM 51.8 °F - 30.2 °F 44% 29.78 in 10.0 mi Calm Calm - N/A   Clear
10:35 AM 55.4 °F - 30.2 °F 38% 29.78 in 10.0 mi WSW 10.4 mph 18.4 mph N/A   Clear
10:55 AM 55.4 °F - 30.2 °F 38% 29.77 in 10.0 mi WSW 9.2 mph 23.0 mph N/A   Clear
11:15 AM 55.4 °F - 28.4 °F 36% 29.76 in 10.0 mi WSW 13.8 mph 18.4 mph N/A   Clear
11:35 AM 55.4 °F - 28.4 °F 36% 29.76 in 10.0 mi WSW 13.8 mph 19.6 mph N/A   Clear
11:55 AM 55.4 °F - 28.4 °F 36% 29.75 in 10.0 mi WSW 10.4 mph 20.7 mph N/A   Clear
12:15 PM 55.4 °F - 28.4 °F 36% 29.74 in 10.0 mi SW 9.2 mph 16.1 mph N/A   Clear
12:35 PM 55.4 °F - 30.2 °F 38% 29.74 in 10.0 mi WSW 11.5 mph 16.1 mph N/A   Clear
12:55 PM 55.4 °F - 28.4 °F 36% 29.74 in 10.0 mi WSW 17.3 mph 33.4 mph N/A   Clear
1:15 PM 55.4 °F - 28.4 °F 36% 29.75 in 10.0 mi WSW 18.4 mph 29.9 mph N/A   Clear
1:35 PM 55.4 °F - 28.4 °F 36% 29.74 in 10.0 mi WSW 11.5 mph 24.2 mph N/A   Clear
1:55 PM 53.6 °F - 28.4 °F 38% 29.74 in 10.0 mi WSW 11.5 mph 21.9 mph N/A   Clear
2:15 PM 53.6 °F - 30.2 °F 41% 29.74 in 10.0 mi WSW 9.2 mph 17.3 mph N/A   Clear
2:35 PM 51.8 °F - 32.0 °F 47% 29.74 in 10.0 mi West 11.5 mph 19.6 mph N/A   Clear
2:55 PM 51.8 °F - 32.0 °F 47% 29.75 in 10.0 mi WNW 12.7 mph 23.0 mph N/A   Clear
3:15 PM 50.0 °F - 33.8 °F 54% 29.75 in 10.0 mi West 12.7 mph 21.9 mph N/A   Partly Cloudy
3:35 PM 48.2 °F - 32.0 °F 54% 29.76 in 10.0 mi West 11.5 mph 21.9 mph N/A   Clear
3:55 PM 46.4 °F 38.3 °F 30.2 °F 53% 29.76 in 10.0 mi West 23.0 mph 32.2 mph N/A   Clear
4:35 PM 48.2 °F - 28.4 °F 46% 29.77 in 10.0 mi WSW 17.3 mph 29.9 mph N/A   Clear
4:55 PM 46.4 °F 39.0 °F 30.2 °F 53% 29.78 in 10.0 mi WSW 19.6 mph 32.2 mph N/A   Clear
5:15 PM 46.4 °F 39.2 °F 30.2 °F 53% 29.74 in 10.0 mi WSW 18.4 mph 32.2 mph N/A   Clear
5:35 PM 46.4 °F 41.1 °F 30.2 °F 53% 29.76 in 10.0 mi WSW 11.5 mph 32.2 mph N/A   Clear
5:55 PM 46.4 °F 41.1 °F 28.4 °F 50% 29.79 in 10.0 mi WSW 11.5 mph 19.6 mph N/A   Clear
6:15 PM 44.6 °F 40.2 °F 30.2 °F 57% 29.80 in 10.0 mi ESE 8.1 mph - N/A   Clear
6:35 PM 44.6 °F 42.2 °F 30.2 °F 57% 29.81 in 10.0 mi South 4.6 mph - N/A   Clear
6:55 PM 44.6 °F 38.4 °F 30.2 °F 57% 29.82 in 10.0 mi SW 12.7 mph - N/A   Scattered Clouds
7:15 PM 44.6 °F 37.8 °F 30.2 °F 57% 29.82 in 10.0 mi SW 15.0 mph 23.0 mph N/A   Scattered Clouds
7:35 PM 41.0 °F 32.2 °F 32.0 °F 70% 29.80 in 10.0 mi SSW 18.4 mph 23.0 mph N/A   Clear
7:55 PM 41.0 °F 34.7 °F 32.0 °F 70% 29.81 in 10.0 mi SSW 10.4 mph - N/A   Clear
8:15 PM 41.0 °F 33.5 °F 30.2 °F 65% 29.82 in 10.0 mi South 13.8 mph - N/A   Scattered Clouds
8:35 PM 41.0 °F 35.2 °F 30.2 °F 65% 29.82 in 10.0 mi SSW 9.2 mph - N/A   Mostly Cloudy
8:55 PM 37.4 °F 29.3 °F 32.0 °F 81% 29.84 in 10.0 mi North 12.7 mph - N/A   Mostly Cloudy
9:35 PM 33.8 °F 23.5 °F 30.2 °F 87% 29.85 in 10.0 mi NNE 16.1 mph 20.7 mph N/A   Mostly Cloudy
9:55 PM 33.8 °F 24.8 °F 30.2 °F 87% 29.86 in 10.0 mi North 12.7 mph - N/A   Overcast
10:35 PM 33.8 °F 24.3 °F 30.2 °F 87% 29.90 in 10.0 mi North 13.8 mph 20.7 mph N/A   Overcast
10:55 PM 33.8 °F 24.8 °F 30.2 °F 87% 29.91 in 10.0 mi North 12.7 mph - N/A   Overcast
11:15 PM 32.0 °F 21.2 °F 30.2 °F 93% 29.92 in 1.5 mi North 16.1 mph - N/A   Overcast
11:35 PM 32.0 °F 26.4 °F 30.2 °F 93% 29.93 in 1.5 mi NE 5.8 mph - N/A   Overcast